Time;durP1;ratioP1;P1;durP2;ratioP2;P2;SDS_P1;SDS_P2;PMS_P1;PMS_P2;Temp;Humidity;BMP_temperature;BMP_pressure;BME280_temperature;BME280_humidity;BME280_pressure;Samples;Min_cycle;Max_cycle;Signal;HPM_P1;HPM_P2
2021/07/02 00:02:51;;;;;;;;;;;23.70;42.80;;;;;;8265622;28;20398;-48
2021/07/02 00:06:51;;;;;;;;;;;23.70;42.80;;;;;;8260930;28;19913;-48
2021/07/02 00:10:52;;;;;;;;;;;23.70;42.80;;;;;;8260716;28;19953;-48
2021/07/02 00:14:53;;;;;;;;;;;23.70;42.80;;;;;;8260650;28;20371;-47
2021/07/02 00:18:53;;;;;;;;;;;23.70;42.80;;;;;;8261787;28;19909;-48
2021/07/02 00:22:53;;;;;;;;;;;23.60;42.80;;;;;;8263888;28;19925;-48
2021/07/02 00:26:54;;;;;;;;;;;23.60;42.80;;;;;;8266959;28;20054;-47
2021/07/02 00:30:54;;;;;;;;;;;23.60;42.90;;;;;;8266422;28;20004;-47
2021/07/02 00:34:55;;;;;;;;;;;23.60;42.80;;;;;;8265904;28;19918;-47
2021/07/02 00:38:55;;;;;;;;;;;23.60;42.80;;;;;;8270403;28;20268;-47
2021/07/02 00:42:56;;;;;;;;;;;23.60;42.90;;;;;;8265962;28;19922;-48
2021/07/02 00:46:56;;;;;;;;;;;23.60;42.90;;;;;;8265697;28;20232;-48
2021/07/02 00:50:57;;;;;;;;;;;23.60;42.90;;;;;;8265754;28;20279;-47
2021/07/02 00:54:57;;;;;;;;;;;23.60;42.90;;;;;;8284570;28;20310;-47
2021/07/02 00:58:58;;;;;;;;;;;23.60;42.90;;;;;;8265472;28;19913;-47
2021/07/02 01:02:58;;;;;;;;;;;23.60;42.90;;;;;;8265458;28;19989;-50
2021/07/02 01:06:59;;;;;;;;;;;23.60;42.90;;;;;;8264991;28;20260;-47
2021/07/02 01:11:00;;;;;;;;;;;23.50;42.90;;;;;;8265487;28;19910;-48
2021/07/02 01:15:00;;;;;;;;;;;23.60;42.90;;;;;;8269575;28;20371;-47
2021/07/02 01:19:00;;;;;;;;;;;23.50;42.90;;;;;;8264467;28;19913;-46
2021/07/02 01:23:01;;;;;;;;;;;23.50;42.90;;;;;;8264561;28;19921;-47
2021/07/02 01:27:02;;;;;;;;;;;23.50;42.80;;;;;;8264826;28;19918;-49
2021/07/02 01:31:03;;;;;;;;;;;23.50;42.90;;;;;;8268482;28;20430;-47
2021/07/02 01:35:04;;;;;;;;;;;23.50;42.90;;;;;;8263816;28;19914;-48
2021/07/02 01:39:05;;;;;;;;;;;23.50;42.90;;;;;;8264207;28;19918;-48
2021/07/02 01:43:05;;;;;;;;;;;23.50;42.90;;;;;;8263565;28;19922;-47
2021/07/02 01:47:06;;;;;;;;;;;23.50;42.90;;;;;;8268298;28;20019;-47
2021/07/02 01:51:06;;;;;;;;;;;23.50;42.90;;;;;;8264060;28;19940;-47
2021/07/02 01:55:07;;;;;;;;;;;23.50;42.90;;;;;;8263054;28;19921;-48
2021/07/02 01:59:07;;;;;;;;;;;23.50;42.90;;;;;;8263456;28;19918;-47
2021/07/02 02:03:08;;;;;;;;;;;23.40;42.90;;;;;;8263518;28;20255;-47
2021/07/02 02:07:08;;;;;;;;;;;23.40;42.90;;;;;;8267475;28;19913;-47
2021/07/02 02:11:09;;;;;;;;;;;23.40;42.90;;;;;;8263159;28;19922;-48
2021/07/02 02:15:09;;;;;;;;;;;23.40;42.90;;;;;;8263857;28;19933;-47
2021/07/02 02:19:10;;;;;;;;;;;23.40;42.90;;;;;;8262592;28;19914;-47
2021/07/02 02:23:10;;;;;;;;;;;23.40;42.90;;;;;;8267132;28;20330;-47
2021/07/02 02:27:11;;;;;;;;;;;23.40;42.90;;;;;;8262998;28;20000;-48
2021/07/02 02:31:11;;;;;;;;;;;23.30;42.90;;;;;;8262417;28;19916;-47
2021/07/02 02:35:12;;;;;;;;;;;23.30;42.90;;;;;;8262470;28;19910;-49
2021/07/02 02:39:12;;;;;;;;;;;23.30;42.90;;;;;;8266919;28;19996;-48
2021/07/02 02:43:12;;;;;;;;;;;23.30;42.90;;;;;;8261855;28;20012;-47
2021/07/02 02:47:13;;;;;;;;;;;23.30;42.90;;;;;;8260980;28;20425;-47
2021/07/02 02:51:14;;;;;;;;;;;23.30;42.90;;;;;;8262319;28;19914;-48
2021/07/02 02:55:14;;;;;;;;;;;23.30;42.90;;;;;;8261699;28;19913;-48
2021/07/02 02:59:15;;;;;;;;;;;23.30;42.90;;;;;;8266304;28;19917;-49
2021/07/02 03:03:15;;;;;;;;;;;23.30;42.90;;;;;;8262012;28;20394;-49
2021/07/02 03:07:16;;;;;;;;;;;23.30;42.90;;;;;;8261314;28;19914;-48
2021/07/02 03:11:18;;;;;;;;;;;23.30;42.90;;;;;;8261735;28;19913;-49
2021/07/02 03:15:19;;;;;;;;;;;23.30;42.90;;;;;;8266175;28;19910;-49
2021/07/02 03:19:19;;;;;;;;;;;23.20;42.90;;;;;;8261189;28;20352;-49
2021/07/02 03:23:20;;;;;;;;;;;23.20;42.90;;;;;;8261812;28;20284;-49
2021/07/02 03:27:20;;;;;;;;;;;23.20;42.90;;;;;;8261562;28;20009;-49
2021/07/02 03:31:22;;;;;;;;;;;23.20;42.90;;;;;;8262069;28;19910;-50
2021/07/02 03:35:22;;;;;;;;;;;23.20;42.90;;;;;;8233422;28;20005;-53
2021/07/02 03:39:22;;;;;;;;;;;23.20;42.90;;;;;;8252943;28;19921;-51
2021/07/02 03:43:23;;;;;;;;;;;23.20;42.90;;;;;;8260838;28;20028;-49
2021/07/02 03:47:24;;;;;;;;;;;23.20;42.90;;;;;;8261017;28;20390;-48
2021/07/02 03:51:24;;;;;;;;;;;23.20;42.90;;;;;;8265469;28;19936;-48
2021/07/02 03:55:24;;;;;;;;;;;23.20;42.90;;;;;;8260758;28;19936;-48
2021/07/02 03:59:25;;;;;;;;;;;23.20;42.90;;;;;;8263492;28;19920;-48
2021/07/02 04:03:28;;;;;;;;;;;23.10;42.90;;;;;;8267230;28;19953;-48
2021/07/02 04:07:28;;;;;;;;;;;23.20;42.90;;;;;;8271314;28;20401;-47
2021/07/02 04:11:29;;;;;;;;;;;23.10;42.90;;;;;;8267259;28;19918;-49
2021/07/02 04:15:29;;;;;;;;;;;23.10;42.90;;;;;;8266822;28;20351;-49
2021/07/02 04:19:30;;;;;;;;;;;23.10;42.90;;;;;;8266595;28;19937;-50
2021/07/02 04:23:30;;;;;;;;;;;23.10;42.90;;;;;;8266963;28;19972;-50
2021/07/02 04:27:31;;;;;;;;;;;23.10;42.90;;;;;;8271089;28;19916;-48
2021/07/02 04:31:32;;;;;;;;;;;23.10;42.90;;;;;;8265963;28;19997;-48
2021/07/02 04:35:32;;;;;;;;;;;23.10;42.90;;;;;;8266434;28;19921;-49
2021/07/02 04:39:33;;;;;;;;;;;23.10;42.90;;;;;;8266057;28;19949;-48
2021/07/02 04:43:33;;;;;;;;;;;23.10;42.90;;;;;;8269912;28;20267;-49
2021/07/02 04:47:33;;;;;;;;;;;23.10;42.90;;;;;;8266384;28;19921;-49
2021/07/02 04:51:34;;;;;;;;;;;23.10;42.90;;;;;;8265867;28;19918;-47
2021/07/02 04:55:34;;;;;;;;;;;23.10;42.90;;;;;;8265403;28;19960;-49
2021/07/02 04:59:37;;;;;;;;;;;23.10;42.90;;;;;;8269746;28;19996;-48
2021/07/02 05:03:38;;;;;;;;;;;23.10;42.90;;;;;;8265817;28;19921;-49
2021/07/02 05:07:39;;;;;;;;;;;23.00;42.90;;;;;;8264754;28;19920;-49
2021/07/02 05:11:39;;;;;;;;;;;23.00;42.90;;;;;;8264847;28;20295;-49
2021/07/02 05:15:40;;;;;;;;;;;23.00;42.90;;;;;;8265140;28;19913;-48
2021/07/02 05:19:41;;;;;;;;;;;23.10;42.90;;;;;;8268813;28;19969;-50
2021/07/02 05:23:42;;;;;;;;;;;23.10;42.80;;;;;;8264981;28;19922;-49
2021/07/02 05:27:42;;;;;;;;;;;23.10;42.60;;;;;;8264663;28;19956;-48
2021/07/02 05:31:43;;;;;;;;;;;23.30;42.50;;;;;;8263515;28;19913;-48
2021/07/02 05:35:43;;;;;;;;;;;23.40;42.20;;;;;;8268980;28;19910;-46
2021/07/02 05:39:44;;;;;;;;;;;23.60;41.80;;;;;;8264040;28;19956;-47
2021/07/02 05:43:44;;;;;;;;;;;23.70;41.60;;;;;;8263877;28;19981;-49
2021/07/02 05:47:50;;;;;;;;;;;23.70;41.50;;;;;;8264085;28;19914;-53
2021/07/02 05:51:50;;;;;;;;;;;23.70;41.50;;;;;;8266891;28;19920;-50
2021/07/02 05:55:51;;;;;;;;;;;23.70;41.60;;;;;;8267521;28;19913;-49
2021/07/02 05:59:51;;;;;;;;;;;23.60;41.60;;;;;;8263741;28;20339;-50
2021/07/02 06:03:52;;;;;;;;;;;23.60;41.70;;;;;;8263574;28;19925;-47
2021/07/02 06:07:53;;;;;;;;;;;23.60;41.80;;;;;;8262844;28;20291;-48
2021/07/02 06:11:54;;;;;;;;;;;23.50;41.90;;;;;;8267835;28;19910;-50
2021/07/02 06:15:54;;;;;;;;;;;23.40;41.90;;;;;;8263165;28;20491;-50
2021/07/02 06:19:55;;;;;;;;;;;23.40;42.00;;;;;;8262508;28;20334;-50
2021/07/02 06:23:55;;;;;;;;;;;23.30;42.10;;;;;;8262709;28;19929;-48
2021/07/02 06:27:56;;;;;;;;;;;23.30;42.20;;;;;;8267165;28;19957;-50
2021/07/02 06:31:57;;;;;;;;;;;23.30;42.30;;;;;;8262142;28;19913;-48
2021/07/02 06:35:57;;;;;;;;;;;23.20;42.30;;;;;;8241911;28;20001;-50
2021/07/02 06:39:58;;;;;;;;;;;23.20;42.30;;;;;;8241301;28;20330;-48
2021/07/02 06:43:58;;;;;;;;;;;23.20;42.40;;;;;;8262347;28;19909;-49
2021/07/02 06:48:00;;;;;;;;;;;23.20;42.40;;;;;;8266629;28;19913;-48
2021/07/02 06:52:01;;;;;;;;;;;23.20;42.50;;;;;;8261742;28;19976;-48
2021/07/02 06:56:01;;;;;;;;;;;23.20;42.60;;;;;;8262380;28;19923;-49
2021/07/02 07:00:03;;;;;;;;;;;23.10;42.50;;;;;;8262100;28;19924;-48
2021/07/02 07:04:03;;;;;;;;;;;23.10;42.60;;;;;;8266175;28;20009;-49
2021/07/02 07:08:05;;;;;;;;;;;23.10;42.60;;;;;;8262222;28;19913;-50
2021/07/02 07:12:06;;;;;;;;;;;23.10;42.60;;;;;;8261266;28;19925;-48
2021/07/02 07:16:07;;;;;;;;;;;23.10;42.60;;;;;;8261129;28;20355;-49
2021/07/02 07:20:08;;;;;;;;;;;23.10;42.70;;;;;;8263544;28;20043;-49
2021/07/02 07:24:08;;;;;;;;;;;23.10;42.70;;;;;;8264206;28;20382;-49
2021/07/02 07:28:09;;;;;;;;;;;23.10;42.70;;;;;;8260981;28;20056;-48
2021/07/02 07:32:10;;;;;;;;;;;23.10;42.80;;;;;;8261650;28;19968;-49
2021/07/02 07:36:15;;;;;;;;;;;23.10;42.80;;;;;;8267033;28;19987;-49
2021/07/02 07:40:15;;;;;;;;;;;23.10;42.80;;;;;;8271774;28;20004;-49
2021/07/02 07:44:16;;;;;;;;;;;23.10;42.80;;;;;;8282714;28;20307;-50
2021/07/02 07:48:16;;;;;;;;;;;23.10;42.80;;;;;;8267803;28;19933;-49
2021/07/02 07:52:19;;;;;;;;;;;23.10;42.90;;;;;;8260308;28;19951;-50
2021/07/02 07:56:19;;;;;;;;;;;23.10;42.90;;;;;;8239832;28;19911;-49
2021/07/02 08:00:20;;;;;;;;;;;23.10;42.90;;;;;;8266075;28;20405;-49
2021/07/02 08:04:21;;;;;;;;;;;23.10;42.90;;;;;;8266802;28;19917;-50
2021/07/02 08:08:21;;;;;;;;;;;23.10;43.40;;;;;;8266878;28;20399;-49
2021/07/02 08:12:21;;;;;;;;;;;23.20;42.90;;;;;;8267097;28;20299;-50
2021/07/02 08:16:24;;;;;;;;;;;23.20;42.90;;;;;;8270699;28;19918;-48
2021/07/02 08:20:24;;;;;;;;;;;23.20;42.90;;;;;;8266465;28;19929;-47
2021/07/02 08:24:24;;;;;;;;;;;23.20;42.90;;;;;;8265992;28;19914;-47
2021/07/02 08:32:44;;;;;;;;;;;23.20;42.80;;;;;;8272770;28;19916;-47
2021/07/02 08:36:44;;;;;;;;;;;23.20;42.80;;;;;;8266075;28;19918;-47
2021/07/02 08:40:45;;;;;;;;;;;23.20;42.80;;;;;;8265501;28;19926;-49
2021/07/02 08:44:45;;;;;;;;;;;23.20;42.80;;;;;;8264714;28;20323;-46
2021/07/02 08:48:46;;;;;;;;;;;23.20;42.70;;;;;;8265220;28;19913;-47
2021/07/02 08:52:47;;;;;;;;;;;23.20;42.70;;;;;;8269802;28;19917;-47
2021/07/02 08:56:57;;;;;;;;;;;23.20;42.70;;;;;;8265668;28;19920;-48
2021/07/02 09:00:58;;;;;;;;;;;23.30;42.80;;;;;;8265113;28;19924;-47
2021/07/02 09:05:18;;;;;;;;;;;23.30;42.80;;;;;;8265646;28;19918;-46
2021/07/02 09:09:19;;;;;;;;;;;23.30;42.80;;;;;;8267214;28;20278;-51
2021/07/02 09:13:37;;;;;;;;;;;23.30;42.70;;;;;;8266968;28;19916;-47
2021/07/02 09:17:41;;;;;;;;;;;23.30;42.70;;;;;;8265191;28;19936;-47
2021/07/02 09:21:41;;;;;;;;;;;23.30;42.70;;;;;;8265516;28;19921;-48
2021/07/02 09:25:47;;;;;;;;;;;23.40;42.70;;;;;;8264324;28;19914;-48
2021/07/02 09:30:06;;;;;;;;;;;23.40;42.60;;;;;;8269251;28;19909;-51
2021/07/02 09:34:07;;;;;;;;;;;23.40;42.60;;;;;;8265589;28;19918;-48
2021/07/02 09:38:07;;;;;;;;;;;23.40;42.60;;;;;;8264416;28;20059;-52
2021/07/02 09:42:27;;;;;;;;;;;23.50;42.70;;;;;;8264172;28;19976;-48
2021/07/02 09:46:31;;;;;;;;;;;23.50;42.60;;;;;;8263601;28;19913;-47
2021/07/02 09:50:31;;;;;;;;;;;23.50;42.60;;;;;;8268235;28;19945;-48
2021/07/02 09:54:32;;;;;;;;;;;23.50;42.60;;;;;;8264250;28;20370;-47
2021/07/02 09:58:40;;;;;;;;;;;23.60;42.60;;;;;;8262468;28;20272;-47
2021/07/02 10:02:51;;;;;;;;;;;23.60;42.60;;;;;;8253129;28;19933;-48
2021/07/02 10:07:11;;;;;;;;;;;23.60;42.50;;;;;;8234122;28;19952;-47
2021/07/02 10:11:13;;;;;;;;;;;23.60;42.50;;;;;;8267349;28;19992;-48
2021/07/02 10:15:13;;;;;;;;;;;23.60;42.50;;;;;;8263380;28;20000;-51
2021/07/02 10:19:13;;;;;;;;;;;23.60;42.40;;;;;;8262660;28;20280;-47
2021/07/02 10:23:25;;;;;;;;;;;23.70;42.50;;;;;;8262769;28;19922;-50
2021/07/02 10:27:26;;;;;;;;;;;23.70;42.40;;;;;;8264243;28;19956;-52
2021/07/02 10:31:26;;;;;;;;;;;23.80;42.40;;;;;;8266641;28;19909;-48
2021/07/02 10:35:29;;;;;;;;;;;23.80;42.40;;;;;;8262977;28;19914;-48
2021/07/02 10:39:31;;;;;;;;;;;23.80;42.60;;;;;;8262198;28;19920;-50
2021/07/02 10:43:31;;;;;;;;;;;23.80;42.30;;;;;;8276956;28;19922;-50
2021/07/02 10:47:46;;;;;;;;;;;23.80;42.20;;;;;;8266675;28;19910;-46
2021/07/02 10:51:48;;;;;;;;;;;23.90;42.30;;;;;;8262467;28;19968;-52
2021/07/02 10:55:49;;;;;;;;;;;23.90;42.20;;;;;;8261460;28;19914;-50
2021/07/02 10:59:49;;;;;;;;;;;23.90;42.20;;;;;;8261970;28;19920;-52
2021/07/02 11:03:50;;;;;;;;;;;23.80;42.10;;;;;;8263163;28;19952;-49
2021/07/02 11:07:53;;;;;;;;;;;23.90;42.10;;;;;;8264649;28;20021;-48
2021/07/02 11:12:06;;;;;;;;;;;24.00;42.10;;;;;;8261597;28;19920;-51
2021/07/02 11:16:07;;;;;;;;;;;24.00;42.10;;;;;;8261860;28;19910;-49
2021/07/02 11:20:23;;;;;;;;;;;24.00;42.00;;;;;;8261423;28;19968;-48
2021/07/02 11:24:42;;;;;;;;;;;24.00;42.00;;;;;;8266049;28;19921;-48
2021/07/02 11:28:47;;;;;;;;;;;24.00;42.00;;;;;;8233327;28;20368;-48
2021/07/02 11:32:48;;;;;;;;;;;24.00;42.00;;;;;;8254175;28;19914;-48
2021/07/02 11:37:06;;;;;;;;;;;24.10;41.90;;;;;;8261166;28;19979;-47
2021/07/02 11:41:09;;;;;;;;;;;24.10;42.00;;;;;;8260884;28;19968;-48
2021/07/02 11:45:09;;;;;;;;;;;24.10;41.80;;;;;;8265617;28;19910;-47
2021/07/02 11:49:09;;;;;;;;;;;24.10;41.80;;;;;;8260601;28;19914;-50
2021/07/02 11:53:29;;;;;;;;;;;24.10;41.80;;;;;;8261112;28;19913;-47
2021/07/02 11:57:29;;;;;;;;;;;24.10;41.80;;;;;;8261343;28;19910;-50
2021/07/02 12:01:37;;;;;;;;;;;24.20;41.70;;;;;;8260383;28;19991;-47
2021/07/02 12:05:38;;;;;;;;;;;24.20;41.80;;;;;;8265226;28;19925;-47
2021/07/02 12:09:40;;;;;;;;;;;24.20;41.80;;;;;;8260812;28;19913;-50
2021/07/02 12:13:47;;;;;;;;;;;24.20;41.80;;;;;;8260343;28;19914;-48
2021/07/02 12:17:58;;;;;;;;;;;24.30;42.20;;;;;;8261019;28;20322;-47
2021/07/02 12:22:06;;;;;;;;;;;24.30;41.60;;;;;;8265133;28;19921;-47
2021/07/02 12:26:10;;;;;;;;;;;24.30;41.60;;;;;;8270947;28;19910;-46
2021/07/02 12:30:11;;;;;;;;;;;24.30;41.70;;;;;;8278079;28;20342;-51
2021/07/02 12:34:13;;;;;;;;;;;24.40;41.60;;;;;;8265730;28;19921;-44
2021/07/02 12:38:15;;;;;;;;;;;24.40;41.50;;;;;;8259390;28;20292;-51
2021/07/02 12:42:15;;;;;;;;;;;24.40;41.50;;;;;;8238512;28;19930;-52
2021/07/02 12:46:16;;;;;;;;;;;24.40;41.50;;;;;;8259818;28;19920;-51
2021/07/02 12:50:18;;;;;;;;;;;24.40;41.50;;;;;;8265955;28;19914;-50
2021/07/02 12:58:37;;;;;;;;;;;24.50;41.40;;;;;;8265932;28;19925;-47
2021/07/02 13:02:39;;;;;;;;;;;24.50;41.40;;;;;;8269935;28;20292;-50
2021/07/02 13:06:39;;;;;;;;;;;24.50;41.40;;;;;;8268271;28;19936;-47
2021/07/02 13:10:44;;;;;;;;;;;24.50;41.40;;;;;;8264833;28;19914;-46
2021/07/02 13:14:44;;;;;;;;;;;24.50;41.40;;;;;;8264962;28;19914;-51
2021/07/02 13:18:54;;;;;;;;;;;24.50;41.30;;;;;;8273197;28;19939;-52
2021/07/02 13:23:05;;;;;;;;;;;24.60;41.30;;;;;;8247881;28;19921;-52
2021/07/02 13:27:07;;;;;;;;;;;24.60;41.30;;;;;;8281591;28;19952;-51
2021/07/02 13:31:17;;;;;;;;;;;24.60;41.30;;;;;;8274346;28;19980;-48
2021/07/02 13:35:18;;;;;;;;;;;24.60;41.10;;;;;;8263548;28;19922;-47
2021/07/02 13:39:20;;;;;;;;;;;24.60;41.10;;;;;;8288132;28;20271;-52
2021/07/02 13:43:22;;;;;;;;;;;24.60;41.10;;;;;;8292624;28;20020;-48
2021/07/02 13:47:25;;;;;;;;;;;24.60;41.00;;;;;;8277259;28;20310;-50
2021/07/02 13:51:26;;;;;;;;;;;24.70;41.10;;;;;;8263380;28;19918;-51
2021/07/02 13:55:26;;;;;;;;;;;24.70;41.10;;;;;;8277536;28;19913;-51
2021/07/02 13:59:27;;;;;;;;;;;24.70;41.20;;;;;;8284282;28;19921;-47
2021/07/02 14:03:27;;;;;;;;;;;24.70;41.20;;;;;;8272386;28;19922;-48
2021/07/02 14:07:28;;;;;;;;;;;24.70;41.60;;;;;;8262390;28;19914;-50
2021/07/02 14:11:28;;;;;;;;;;;24.70;41.00;;;;;;8251106;28;19917;-47
2021/07/02 14:15:29;;;;;;;;;;;24.80;41.10;;;;;;8298418;28;19909;-50
2021/07/02 14:19:29;;;;;;;;;;;24.70;41.10;;;;;;8262617;28;20008;-48
2021/07/02 14:23:30;;;;;;;;;;;24.80;41.00;;;;;;8262975;28;19922;-47
2021/07/02 14:27:30;;;;;;;;;;;24.80;40.30;;;;;;8263008;28;20477;-51
2021/07/02 14:31:31;;;;;;;;;;;24.80;40.90;;;;;;8266489;28;19964;-49
2021/07/02 14:35:31;;;;;;;;;;;24.80;41.00;;;;;;8266093;28;19996;-47
2021/07/02 14:39:32;;;;;;;;;;;24.80;41.10;;;;;;8262600;28;19979;-50
2021/07/02 14:43:32;;;;;;;;;;;24.80;41.00;;;;;;8261866;28;19921;-51
2021/07/02 14:47:33;;;;;;;;;;;24.80;40.50;;;;;;8262399;28;20439;-50
2021/07/02 14:51:33;;;;;;;;;;;24.80;40.90;;;;;;8266701;28;20068;-51
2021/07/02 14:55:37;;;;;;;;;;;24.80;40.70;;;;;;8270198;28;19949;-52
2021/07/02 14:59:38;;;;;;;;;;;24.80;40.90;;;;;;8260194;28;19913;-48
2021/07/02 15:03:38;;;;;;;;;;;24.80;40.40;;;;;;8261176;28;20008;-48
2021/07/02 15:07:39;;;;;;;;;;;24.90;40.80;;;;;;8266009;28;19996;-47
2021/07/02 15:11:39;;;;;;;;;;;24.80;40.70;;;;;;8247486;28;19914;-48
2021/07/02 15:15:39;;;;;;;;;;;24.90;40.60;;;;;;8262934;28;20330;-50
2021/07/02 15:19:40;;;;;;;;;;;24.90;40.50;;;;;;8258078;28;19972;-47
2021/07/02 15:23:41;;;;;;;;;;;24.90;39.80;;;;;;8265910;28;19918;-47
2021/07/02 15:27:42;;;;;;;;;;;24.90;40.50;;;;;;8261724;28;19914;-50
2021/07/02 15:32:01;;;;;;;;;;;24.90;40.40;;;;;;8264727;28;19914;-52
2021/07/02 15:36:03;;;;;;;;;;;24.90;39.20;;;;;;8269184;28;19941;-48
2021/07/02 15:40:04;;;;;;;;;;;24.90;39.80;;;;;;8287527;28;20275;-51
2021/07/02 15:44:05;;;;;;;;;;;24.90;40.30;;;;;;8265645;28;19917;-52
2021/07/02 15:48:05;;;;;;;;;;;24.90;40.00;;;;;;8261243;28;20282;-52
2021/07/02 15:52:06;;;;;;;;;;;24.90;39.90;;;;;;8260693;28;19917;-51
2021/07/02 15:56:06;;;;;;;;;;;24.90;39.60;;;;;;8264863;28;20282;-52
2021/07/02 16:00:07;;;;;;;;;;;24.90;39.30;;;;;;8271673;28;20415;-48
2021/07/02 16:04:08;;;;;;;;;;;24.90;39.60;;;;;;8265257;28;19926;-50
2021/07/02 16:08:09;;;;;;;;;;;24.90;39.70;;;;;;8266184;28;19929;-47
2021/07/02 16:12:09;;;;;;;;;;;24.90;39.70;;;;;;8266042;28;19922;-48
2021/07/02 16:16:10;;;;;;;;;;;24.90;38.80;;;;;;8266482;28;19913;-51
2021/07/02 16:20:11;;;;;;;;;;;24.90;39.70;;;;;;8271022;28;19909;-48
2021/07/02 16:24:11;;;;;;;;;;;24.90;39.60;;;;;;8266381;28;19928;-47
2021/07/02 16:28:11;;;;;;;;;;;24.80;39.90;;;;;;8266021;28;20360;-46
2021/07/02 16:32:12;;;;;;;;;;;24.80;39.60;;;;;;8266557;28;20350;-47
2021/07/02 16:36:15;;;;;;;;;;;24.80;40.10;;;;;;8270676;28;20264;-51
2021/07/02 16:40:15;;;;;;;;;;;24.80;39.80;;;;;;8265962;28;19918;-47
2021/07/02 16:44:16;;;;;;;;;;;24.80;40.10;;;;;;8265876;28;19929;-49
2021/07/02 16:48:16;;;;;;;;;;;24.80;40.20;;;;;;8256715;28;19957;-47
2021/07/02 16:52:17;;;;;;;;;;;24.90;40.30;;;;;;8235092;28;19918;-48
2021/07/02 16:56:17;;;;;;;;;;;24.80;40.20;;;;;;8269049;28;19910;-48
2021/07/02 17:00:18;;;;;;;;;;;24.80;40.20;;;;;;8265565;28;19918;-47
2021/07/02 17:04:19;;;;;;;;;;;24.80;40.20;;;;;;8264867;28;19921;-50
2021/07/02 17:08:20;;;;;;;;;;;24.80;40.40;;;;;;8264411;28;19996;-47
2021/07/02 17:12:20;;;;;;;;;;;24.80;40.50;;;;;;8269626;28;20394;-48
2021/07/02 17:16:21;;;;;;;;;;;24.80;40.60;;;;;;8264680;28;19914;-51
2021/07/02 17:20:21;;;;;;;;;;;24.80;40.70;;;;;;8265284;28;19914;-47
2021/07/02 17:24:22;;;;;;;;;;;24.80;40.80;;;;;;8264952;28;19972;-48
2021/07/02 17:28:23;;;;;;;;;;;24.80;40.90;;;;;;8268708;28;19964;-46
2021/07/02 17:32:23;;;;;;;;;;;24.80;41.00;;;;;;8264881;28;19914;-48
2021/07/02 17:36:24;;;;;;;;;;;24.80;41.10;;;;;;8264791;28;19921;-48
2021/07/02 17:40:24;;;;;;;;;;;24.80;41.00;;;;;;8263998;28;19920;-46
2021/07/02 17:44:25;;;;;;;;;;;24.80;41.00;;;;;;8264149;28;19910;-47
2021/07/02 17:48:25;;;;;;;;;;;24.80;41.20;;;;;;8268534;28;19940;-49
2021/07/02 17:52:26;;;;;;;;;;;24.80;40.90;;;;;;8263971;28;19921;-47
2021/07/02 17:56:26;;;;;;;;;;;24.80;41.00;;;;;;8264240;28;20004;-48
2021/07/02 18:00:27;;;;;;;;;;;24.70;41.00;;;;;;8263712;28;19972;-48
2021/07/02 18:04:27;;;;;;;;;;;24.80;41.00;;;;;;8267825;28;19917;-48
2021/07/02 18:08:29;;;;;;;;;;;24.80;40.70;;;;;;8263956;28;20323;-48
2021/07/02 18:12:30;;;;;;;;;;;24.70;40.70;;;;;;8263582;28;19921;-48
2021/07/02 18:16:31;;;;;;;;;;;24.80;40.90;;;;;;8262870;28;19996;-49
2021/07/02 18:20:31;;;;;;;;;;;24.70;41.00;;;;;;8267542;28;19989;-49
2021/07/02 18:24:32;;;;;;;;;;;24.70;41.10;;;;;;8262915;28;20375;-48
2021/07/02 18:28:33;;;;;;;;;;;24.70;41.00;;;;;;8262425;28;19937;-48
2021/07/02 18:32:35;;;;;;;;;;;24.70;41.10;;;;;;8262762;28;20017;-48
2021/07/02 18:36:35;;;;;;;;;;;24.70;41.10;;;;;;8262590;28;19925;-48
2021/07/02 18:40:35;;;;;;;;;;;24.70;41.20;;;;;;8266488;28;19964;-48
2021/07/02 18:44:36;;;;;;;;;;;24.70;41.20;;;;;;8262854;28;19918;-48
2021/07/02 18:48:36;;;;;;;;;;;24.70;41.20;;;;;;8262260;28;19956;-47
2021/07/02 18:52:37;;;;;;;;;;;24.70;41.20;;;;;;8261832;28;19913;-48
2021/07/02 18:56:38;;;;;;;;;;;24.70;41.20;;;;;;8266549;28;19910;-47
2021/07/02 19:00:38;;;;;;;;;;;24.70;41.50;;;;;;8262149;28;19927;-48
2021/07/02 19:04:38;;;;;;;;;;;24.60;41.60;;;;;;8261357;28;20424;-47
2021/07/02 19:08:39;;;;;;;;;;;24.60;41.60;;;;;;8261854;28;20409;-50
2021/07/02 19:12:41;;;;;;;;;;;24.60;41.60;;;;;;8263061;28;19914;-49
2021/07/02 19:16:42;;;;;;;;;;;24.70;41.60;;;;;;8264696;28;19972;-47
2021/07/02 19:20:42;;;;;;;;;;;24.60;41.50;;;;;;8261543;28;19914;-48
2021/07/02 19:24:43;;;;;;;;;;;24.60;41.50;;;;;;8261477;28;19910;-48
2021/07/02 19:28:43;;;;;;;;;;;24.60;41.60;;;;;;8260443;28;19918;-48
2021/07/02 19:32:44;;;;;;;;;;;24.60;41.70;;;;;;8265765;28;20391;-48
2021/07/02 19:36:44;;;;;;;;;;;24.60;41.70;;;;;;8261909;28;20371;-48
2021/07/02 19:40:45;;;;;;;;;;;24.60;41.70;;;;;;8260748;28;19920;-48
2021/07/02 19:44:46;;;;;;;;;;;24.60;41.70;;;;;;8261203;28;20001;-47
2021/07/02 19:48:46;;;;;;;;;;;24.60;41.70;;;;;;8265722;28;19925;-48
2021/07/02 19:52:47;;;;;;;;;;;24.60;41.70;;;;;;8260529;28;19914;-49
2021/07/02 19:56:47;;;;;;;;;;;24.60;41.60;;;;;;8261324;28;19968;-48
2021/07/02 20:00:48;;;;;;;;;;;24.60;41.60;;;;;;8260927;28;19973;-49
2021/07/02 20:04:48;;;;;;;;;;;24.50;41.60;;;;;;8260997;28;19964;-48
2021/07/02 20:08:49;;;;;;;;;;;24.60;41.60;;;;;;8265271;28;19914;-48
2021/07/02 20:12:50;;;;;;;;;;;24.60;42.20;;;;;;8261134;28;20403;-48
2021/07/02 20:16:50;;;;;;;;;;;24.60;41.60;;;;;;8260848;28;19921;-48
2021/07/02 20:20:51;;;;;;;;;;;24.50;41.50;;;;;;8260390;28;19921;-47
2021/07/02 20:24:51;;;;;;;;;;;24.50;41.50;;;;;;8264985;28;20287;-48
2021/07/02 20:28:52;;;;;;;;;;;24.60;41.60;;;;;;8260173;28;19921;-48
2021/07/02 20:32:52;;;;;;;;;;;24.60;41.60;;;;;;8260769;28;20299;-49
2021/07/02 20:36:54;;;;;;;;;;;24.50;41.50;;;;;;8260705;28;19909;-48
2021/07/02 20:40:55;;;;;;;;;;;24.50;41.50;;;;;;8265934;28;19928;-48
2021/07/02 20:44:55;;;;;;;;;;;24.50;41.50;;;;;;8266460;28;20323;-47
2021/07/02 20:48:56;;;;;;;;;;;24.50;41.50;;;;;;8266113;28;19914;-49
2021/07/02 20:52:56;;;;;;;;;;;24.50;41.50;;;;;;8265403;28;19945;-47
2021/07/02 20:56:57;;;;;;;;;;;24.50;41.40;;;;;;8265910;28;23469;-48
2021/07/02 21:00:57;;;;;;;;;;;24.50;41.40;;;;;;8270071;28;19929;-47
2021/07/02 21:04:58;;;;;;;;;;;24.50;41.40;;;;;;8264792;28;19925;-47
2021/07/02 21:08:59;;;;;;;;;;;24.50;41.50;;;;;;8265485;28;19910;-49
2021/07/02 21:12:59;;;;;;;;;;;24.50;41.40;;;;;;8264852;28;19917;-49
2021/07/02 21:17:00;;;;;;;;;;;24.50;41.40;;;;;;8270056;28;20394;-48
2021/07/02 21:21:00;;;;;;;;;;;24.50;41.40;;;;;;8265029;28;20486;-47
2021/07/02 21:25:01;;;;;;;;;;;24.50;41.50;;;;;;8264561;28;20279;-47
2021/07/02 21:29:01;;;;;;;;;;;24.50;41.50;;;;;;8265236;28;19914;-49
2021/07/02 21:33:02;;;;;;;;;;;24.50;41.40;;;;;;8268757;28;19910;-47
2021/07/02 21:37:03;;;;;;;;;;;24.50;41.50;;;;;;8265691;28;20016;-47
2021/07/02 21:41:03;;;;;;;;;;;24.40;41.40;;;;;;8243382;28;20390;-48
2021/07/02 21:45:04;;;;;;;;;;;24.50;41.50;;;;;;8245092;28;20359;-48
2021/07/02 21:49:05;;;;;;;;;;;24.40;41.50;;;;;;8263819;28;19968;-47
2021/07/02 21:53:05;;;;;;;;;;;24.50;41.50;;;;;;8267796;28;20383;-49
2021/07/02 21:57:06;;;;;;;;;;;24.40;41.50;;;;;;8264377;28;19918;-48
2021/07/02 22:01:06;;;;;;;;;;;24.40;41.50;;;;;;8262655;28;19922;-48
2021/07/02 22:05:07;;;;;;;;;;;24.40;41.50;;;;;;8264166;28;19972;-47
2021/07/02 22:09:08;;;;;;;;;;;24.40;41.50;;;;;;8267862;28;19913;-47
2021/07/02 22:13:08;;;;;;;;;;;24.40;41.50;;;;;;8262934;28;19946;-47
2021/07/02 22:17:09;;;;;;;;;;;24.40;41.60;;;;;;8263834;28;19913;-48
2021/07/02 22:21:09;;;;;;;;;;;24.40;41.50;;;;;;8263118;28;19922;-47
2021/07/02 22:25:10;;;;;;;;;;;24.30;41.50;;;;;;8262794;28;19910;-52
2021/07/02 22:29:10;;;;;;;;;;;24.40;41.60;;;;;;8267556;28;19996;-48
2021/07/02 22:33:11;;;;;;;;;;;24.40;41.60;;;;;;8262855;28;19913;-48
2021/07/02 22:37:11;;;;;;;;;;;24.30;41.50;;;;;;8262197;28;19934;-47
2021/07/02 22:41:11;;;;;;;;;;;24.30;41.50;;;;;;8262629;28;20446;-47
2021/07/02 22:45:12;;;;;;;;;;;24.30;41.60;;;;;;8267183;28;19917;-47
2021/07/02 22:49:12;;;;;;;;;;;24.30;41.50;;;;;;8262138;28;19920;-47
2021/07/02 22:53:13;;;;;;;;;;;24.30;41.60;;;;;;8262233;28;19921;-47
2021/07/02 22:57:13;;;;;;;;;;;24.30;41.60;;;;;;8262527;28;19913;-47
2021/07/02 23:01:14;;;;;;;;;;;24.30;41.60;;;;;;8266117;28;19918;-48
2021/07/02 23:05:15;;;;;;;;;;;24.20;41.60;;;;;;8261347;28;19964;-47
2021/07/02 23:09:15;;;;;;;;;;;24.30;41.70;;;;;;8262034;28;19914;-47
2021/07/02 23:13:16;;;;;;;;;;;24.20;41.60;;;;;;8261319;28;20424;-47
2021/07/02 23:17:16;;;;;;;;;;;24.20;41.60;;;;;;8261894;28;19914;-47
2021/07/02 23:21:17;;;;;;;;;;;24.20;41.60;;;;;;8266063;28;19929;-47
2021/07/02 23:25:17;;;;;;;;;;;24.20;41.60;;;;;;8261185;28;19922;-48
2021/07/02 23:29:18;;;;;;;;;;;24.20;41.60;;;;;;8261352;28;20302;-48
2021/07/02 23:33:19;;;;;;;;;;;24.20;41.60;;;;;;8261334;28;20323;-47